Icarus — D5AX3 — position and weather

sailwx.info

Track history (hours):
 
Tides and Currents Weather Stations Pressure Air Temp Water Temp Dewpoint Dewpoint Depression Visibility Wind Speed Wind Dir Waves Ship Positions

Icarus

Last reported at 2014-Jul-30 20:14 UTC. Time now 2014-Jul-30 21:27 UTC.
Position S 24°10' W 046°17'.

Length 225 m; draft 7.4 m.

Type: Cargo ship. MMSI: 636015464.

Date/timePositionNaut miles runAvg speedWind from/ knotsBaromVisibWave heightAir tempDewpointWater temp
2014-Jul-30 20:14S 24°10' W 046°17'0 0.0
2014-Jul-30 19:29S 24°10' W 046°17'2 1.8
2014-Jul-30 18:33S 24°11' W 046°18'5 5.3
2014-Jul-30 17:33S 24°14' W 046°23'21611.4
2014-Jul-29 22:33S 27°29' W 048°07'1211.6
2014-Jul-29 21:33S 27°40' W 048°12'1211.7
2014-Jul-29 20:33S 27°50' W 048°18'1311.9
2014-Jul-29 19:29S 27°60' W 048°27'  
2014-Jul-22 14:27S 27°59' W 048°20'1212.8
2014-Jul-22 13:32S 27°52' W 048°10'1512.3
2014-Jul-22 12:18S 27°43' W 047°56'  
Track history (hours):
 
Tides and Currents Weather Stations Pressure Air Temp Water Temp Dewpoint Dewpoint Depression Visibility Wind Speed Wind Dir Waves Ship Positions

Icarus

Last reported at 2014-Jul-30 20:14 UTC. Time now 2014-Jul-30 21:27 UTC.
Position S 24°10' W 046°17'.

Length 225 m; draft 7.4 m.

Type: Cargo ship. MMSI: 636015464.

Date/timePositionNaut miles runAvg speedWind from/ knotsBaromVisibWave heightAir tempDewpointWater temp
2014-Jul-30 20:14S 24°10' W 046°17'0 0.0
2014-Jul-30 19:29S 24°10' W 046°17'2 1.8
2014-Jul-30 18:33S 24°11' W 046°18'5 5.3
2014-Jul-30 17:33S 24°14' W 046°23'21611.4
2014-Jul-29 22:33S 27°29' W 048°07'1211.6
2014-Jul-29 21:33S 27°40' W 048°12'1211.7
2014-Jul-29 20:33S 27°50' W 048°18'1311.9
2014-Jul-29 19:29S 27°60' W 048°27'  
2014-Jul-22 14:27S 27°59' W 048°20'1212.8
2014-Jul-22 13:32S 27°52' W 048°10'1512.3
2014-Jul-22 12:18S 27°43' W 047°56'  

Dump ship's entire track history